sensor_id;sensor_type;location;lat;lon;timestamp;P1;durP1;ratioP1;P2;durP2;ratioP2
17959;SDS011;9105;53.552;9.980;2023-07-29T00:01:57;14.25;;;11.23;;
17959;SDS011;9105;53.552;9.980;2023-07-29T00:04:23;12.77;;;11.00;;
17959;SDS011;9105;53.552;9.980;2023-07-29T00:06:49;14.38;;;11.43;;
17959;SDS011;9105;53.552;9.980;2023-07-29T00:09:14;12.32;;;10.65;;
17959;SDS011;9105;53.552;9.980;2023-07-29T00:11:43;10.85;;;9.45;;
17959;SDS011;9105;53.552;9.980;2023-07-29T00:14:09;12.00;;;10.70;;
17959;SDS011;9105;53.552;9.980;2023-07-29T00:16:34;11.43;;;9.82;;
17959;SDS011;9105;53.552;9.980;2023-07-29T00:18:59;12.50;;;10.80;;
17959;SDS011;9105;53.552;9.980;2023-07-29T00:21:27;12.32;;;10.73;;
17959;SDS011;9105;53.552;9.980;2023-07-29T00:23:52;12.88;;;10.63;;
17959;SDS011;9105;53.552;9.980;2023-07-29T00:26:18;11.48;;;9.93;;
17959;SDS011;9105;53.552;9.980;2023-07-29T00:28:43;12.40;;;10.45;;
17959;SDS011;9105;53.552;9.980;2023-07-29T00:31:09;14.68;;;11.02;;
17959;SDS011;9105;53.552;9.980;2023-07-29T00:33:35;11.63;;;10.07;;
17959;SDS011;9105;53.552;9.980;2023-07-29T00:36:01;13.95;;;11.13;;
17959;SDS011;9105;53.552;9.980;2023-07-29T00:38:27;17.50;;;12.00;;
17959;SDS011;9105;53.552;9.980;2023-07-29T00:40:53;18.50;;;12.48;;
17959;SDS011;9105;53.552;9.980;2023-07-29T00:43:18;13.10;;;11.18;;
17959;SDS011;9105;53.552;9.980;2023-07-29T00:45:44;11.77;;;9.88;;
17959;SDS011;9105;53.552;9.980;2023-07-29T00:48:10;13.65;;;11.05;;
17959;SDS011;9105;53.552;9.980;2023-07-29T00:50:35;12.68;;;11.18;;
17959;SDS011;9105;53.552;9.980;2023-07-29T00:53:01;13.90;;;12.27;;
17959;SDS011;9105;53.552;9.980;2023-07-29T00:55:26;14.38;;;11.68;;
17959;SDS011;9105;53.552;9.980;2023-07-29T00:57:53;14.52;;;11.82;;
17959;SDS011;9105;53.552;9.980;2023-07-29T01:00:19;16.98;;;12.23;;
17959;SDS011;9105;53.552;9.980;2023-07-29T01:02:46;17.05;;;13.50;;
17959;SDS011;9105;53.552;9.980;2023-07-29T01:05:12;17.65;;;13.63;;
17959;SDS011;9105;53.552;9.980;2023-07-29T01:07:39;18.67;;;13.63;;
17959;SDS011;9105;53.552;9.980;2023-07-29T01:13:00;14.98;;;11.77;;
17959;SDS011;9105;53.552;9.980;2023-07-29T01:15:36;13.57;;;11.65;;
17959;SDS011;9105;53.552;9.980;2023-07-29T01:18:10;14.68;;;11.70;;
17959;SDS011;9105;53.552;9.980;2023-07-29T01:20:48;16.83;;;13.52;;
17959;SDS011;9105;53.552;9.980;2023-07-29T01:23:31;20.50;;;13.55;;
17959;SDS011;9105;53.552;9.980;2023-07-29T01:25:57;15.73;;;12.15;;
17959;SDS011;9105;53.552;9.980;2023-07-29T01:28:22;16.23;;;13.93;;
17959;SDS011;9105;53.552;9.980;2023-07-29T01:30:49;18.63;;;13.25;;
17959;SDS011;9105;53.552;9.980;2023-07-29T01:33:29;14.40;;;11.95;;
17959;SDS011;9105;53.552;9.980;2023-07-29T01:36:15;17.40;;;12.98;;
17959;SDS011;9105;53.552;9.980;2023-07-29T01:38:45;15.48;;;12.30;;
17959;SDS011;9105;53.552;9.980;2023-07-29T01:41:12;15.07;;;11.05;;
17959;SDS011;9105;53.552;9.980;2023-07-29T01:43:38;15.43;;;10.68;;
17959;SDS011;9105;53.552;9.980;2023-07-29T01:46:11;12.27;;;10.10;;
17959;SDS011;9105;53.552;9.980;2023-07-29T01:48:37;11.68;;;9.30;;
17959;SDS011;9105;53.552;9.980;2023-07-29T01:51:02;11.05;;;9.43;;
17959;SDS011;9105;53.552;9.980;2023-07-29T01:53:28;11.63;;;10.00;;
17959;SDS011;9105;53.552;9.980;2023-07-29T01:55:53;11.38;;;9.32;;
17959;SDS011;9105;53.552;9.980;2023-07-29T01:58:19;12.35;;;9.35;;
17959;SDS011;9105;53.552;9.980;2023-07-29T02:00:44;13.38;;;10.68;;
17959;SDS011;9105;53.552;9.980;2023-07-29T02:03:10;15.30;;;9.98;;
17959;SDS011;9105;53.552;9.980;2023-07-29T02:05:35;39.75;;;13.20;;
17959;SDS011;9105;53.552;9.980;2023-07-29T02:08:02;38.40;;;14.38;;
17959;SDS011;9105;53.552;9.980;2023-07-29T02:10:27;35.55;;;17.25;;
17959;SDS011;9105;53.552;9.980;2023-07-29T02:12:53;13.55;;;10.13;;
17959;SDS011;9105;53.552;9.980;2023-07-29T02:15:18;18.63;;;13.48;;
17959;SDS011;9105;53.552;9.980;2023-07-29T02:17:44;26.60;;;17.45;;
17959;SDS011;9105;53.552;9.980;2023-07-29T02:20:09;21.33;;;13.38;;
17959;SDS011;9105;53.552;9.980;2023-07-29T02:22:35;20.13;;;15.55;;
17959;SDS011;9105;53.552;9.980;2023-07-29T02:25:01;16.25;;;13.35;;
17959;SDS011;9105;53.552;9.980;2023-07-29T02:27:27;28.55;;;19.40;;
17959;SDS011;9105;53.552;9.980;2023-07-29T02:29:53;41.88;;;23.95;;
17959;SDS011;9105;53.552;9.980;2023-07-29T02:32:19;18.15;;;14.63;;
17959;SDS011;9105;53.552;9.980;2023-07-29T02:34:45;18.77;;;14.70;;
17959;SDS011;9105;53.552;9.980;2023-07-29T02:37:10;25.55;;;18.88;;
17959;SDS011;9105;53.552;9.980;2023-07-29T02:39:36;37.85;;;23.17;;
17959;SDS011;9105;53.552;9.980;2023-07-29T02:42:01;21.85;;;15.77;;
17959;SDS011;9105;53.552;9.980;2023-07-29T02:44:27;20.90;;;15.07;;
17959;SDS011;9105;53.552;9.980;2023-07-29T02:46:53;11.05;;;9.25;;
17959;SDS011;9105;53.552;9.980;2023-07-29T02:49:20;27.08;;;18.70;;
17959;SDS011;9105;53.552;9.980;2023-07-29T02:51:46;31.38;;;20.65;;
17959;SDS011;9105;53.552;9.980;2023-07-29T02:54:11;20.08;;;15.38;;
17959;SDS011;9105;53.552;9.980;2023-07-29T02:56:37;35.95;;;23.08;;
17959;SDS011;9105;53.552;9.980;2023-07-29T02:59:02;23.42;;;16.45;;
17959;SDS011;9105;53.552;9.980;2023-07-29T03:01:28;38.83;;;23.85;;
17959;SDS011;9105;53.552;9.980;2023-07-29T03:03:53;64.53;;;31.33;;
17959;SDS011;9105;53.552;9.980;2023-07-29T03:06:19;29.27;;;19.33;;
17959;SDS011;9105;53.552;9.980;2023-07-29T03:08:44;24.13;;;17.75;;
17959;SDS011;9105;53.552;9.980;2023-07-29T03:11:10;25.00;;;18.17;;
17959;SDS011;9105;53.552;9.980;2023-07-29T03:13:36;23.00;;;17.42;;
17959;SDS011;9105;53.552;9.980;2023-07-29T03:16:06;25.13;;;18.30;;
17959;SDS011;9105;53.552;9.980;2023-07-29T03:18:34;23.33;;;17.05;;
17959;SDS011;9105;53.552;9.980;2023-07-29T03:21:00;14.48;;;12.75;;
17959;SDS011;9105;53.552;9.980;2023-07-29T03:23:25;32.95;;;19.85;;
17959;SDS011;9105;53.552;9.980;2023-07-29T03:25:51;25.35;;;17.20;;
17959;SDS011;9105;53.552;9.980;2023-07-29T03:28:18;16.17;;;12.88;;
17959;SDS011;9105;53.552;9.980;2023-07-29T03:30:44;19.23;;;14.50;;
17959;SDS011;9105;53.552;9.980;2023-07-29T03:33:09;25.13;;;18.55;;
17959;SDS011;9105;53.552;9.980;2023-07-29T03:35:34;23.15;;;17.02;;
17959;SDS011;9105;53.552;9.980;2023-07-29T03:38:00;47.83;;;27.27;;
17959;SDS011;9105;53.552;9.980;2023-07-29T03:40:25;25.90;;;19.23;;
17959;SDS011;9105;53.552;9.980;2023-07-29T03:42:51;21.48;;;16.25;;
17959;SDS011;9105;53.552;9.980;2023-07-29T03:45:16;19.75;;;15.82;;
17959;SDS011;9105;53.552;9.980;2023-07-29T03:47:41;14.73;;;13.02;;
17959;SDS011;9105;53.552;9.980;2023-07-29T03:50:07;29.58;;;19.90;;
17959;SDS011;9105;53.552;9.980;2023-07-29T03:52:33;25.85;;;19.42;;
17959;SDS011;9105;53.552;9.980;2023-07-29T03:54:58;22.63;;;17.40;;
17959;SDS011;9105;53.552;9.980;2023-07-29T03:57:24;48.03;;;27.27;;
17959;SDS011;9105;53.552;9.980;2023-07-29T03:59:52;26.50;;;19.65;;
17959;SDS011;9105;53.552;9.980;2023-07-29T04:02:17;19.53;;;15.10;;
17959;SDS011;9105;53.552;9.980;2023-07-29T04:04:43;26.85;;;18.13;;
17959;SDS011;9105;53.552;9.980;2023-07-29T04:07:12;28.33;;;21.60;;
17959;SDS011;9105;53.552;9.980;2023-07-29T04:09:38;49.25;;;26.83;;
17959;SDS011;9105;53.552;9.980;2023-07-29T04:12:03;27.38;;;21.73;;
17959;SDS011;9105;53.552;9.980;2023-07-29T04:14:29;25.20;;;18.67;;
17959;SDS011;9105;53.552;9.980;2023-07-29T04:16:54;22.27;;;16.67;;
17959;SDS011;9105;53.552;9.980;2023-07-29T04:19:20;21.15;;;17.83;;
17959;SDS011;9105;53.552;9.980;2023-07-29T04:21:45;67.85;;;33.83;;
17959;SDS011;9105;53.552;9.980;2023-07-29T04:24:11;35.17;;;23.42;;
17959;SDS011;9105;53.552;9.980;2023-07-29T04:26:36;51.30;;;31.52;;
17959;SDS011;9105;53.552;9.980;2023-07-29T04:29:04;40.53;;;26.35;;
17959;SDS011;9105;53.552;9.980;2023-07-29T04:31:29;39.92;;;27.92;;
17959;SDS011;9105;53.552;9.980;2023-07-29T04:33:55;47.92;;;29.48;;
17959;SDS011;9105;53.552;9.980;2023-07-29T04:36:20;31.42;;;24.40;;
17959;SDS011;9105;53.552;9.980;2023-07-29T04:38:46;44.80;;;29.77;;
17959;SDS011;9105;53.552;9.980;2023-07-29T04:41:11;53.60;;;35.03;;
17959;SDS011;9105;53.552;9.980;2023-07-29T04:43:36;37.85;;;29.10;;
17959;SDS011;9105;53.552;9.980;2023-07-29T04:46:02;43.45;;;31.42;;
17959;SDS011;9105;53.552;9.980;2023-07-29T04:48:28;38.80;;;28.85;;
17959;SDS011;9105;53.552;9.980;2023-07-29T04:50:53;53.90;;;33.83;;
17959;SDS011;9105;53.552;9.980;2023-07-29T04:53:19;45.10;;;31.88;;
17959;SDS011;9105;53.552;9.980;2023-07-29T04:55:45;47.53;;;31.42;;
17959;SDS011;9105;53.552;9.980;2023-07-29T04:58:10;38.50;;;30.50;;
17959;SDS011;9105;53.552;9.980;2023-07-29T05:00:35;53.47;;;33.83;;
17959;SDS011;9105;53.552;9.980;2023-07-29T05:03:01;61.45;;;37.95;;
17959;SDS011;9105;53.552;9.980;2023-07-29T05:05:26;73.45;;;38.22;;
17959;SDS011;9105;53.552;9.980;2023-07-29T05:07:52;57.42;;;36.03;;
17959;SDS011;9105;53.552;9.980;2023-07-29T05:10:17;41.67;;;30.75;;
17959;SDS011;9105;53.552;9.980;2023-07-29T05:12:45;40.23;;;30.93;;
17959;SDS011;9105;53.552;9.980;2023-07-29T05:15:11;39.55;;;30.10;;
17959;SDS011;9105;53.552;9.980;2023-07-29T05:17:36;38.30;;;29.80;;
17959;SDS011;9105;53.552;9.980;2023-07-29T05:20:02;37.45;;;29.38;;
17959;SDS011;9105;53.552;9.980;2023-07-29T05:22:28;39.05;;;29.88;;
17959;SDS011;9105;53.552;9.980;2023-07-29T05:24:53;38.88;;;28.95;;
17959;SDS011;9105;53.552;9.980;2023-07-29T05:27:19;30.70;;;25.70;;
17959;SDS011;9105;53.552;9.980;2023-07-29T05:29:44;26.23;;;23.17;;
17959;SDS011;9105;53.552;9.980;2023-07-29T05:32:09;27.10;;;23.48;;
17959;SDS011;9105;53.552;9.980;2023-07-29T05:34:35;28.20;;;23.50;;
17959;SDS011;9105;53.552;9.980;2023-07-29T05:37:00;27.60;;;23.02;;
17959;SDS011;9105;53.552;9.980;2023-07-29T05:39:26;30.83;;;24.63;;
17959;SDS011;9105;53.552;9.980;2023-07-29T05:41:51;25.52;;;22.75;;
17959;SDS011;9105;53.552;9.980;2023-07-29T05:44:16;24.85;;;22.17;;
17959;SDS011;9105;53.552;9.980;2023-07-29T05:46:42;26.98;;;22.80;;
17959;SDS011;9105;53.552;9.980;2023-07-29T05:49:07;23.90;;;20.95;;
17959;SDS011;9105;53.552;9.980;2023-07-29T05:51:33;24.90;;;21.90;;
17959;SDS011;9105;53.552;9.980;2023-07-29T05:53:58;21.15;;;19.05;;
17959;SDS011;9105;53.552;9.980;2023-07-29T05:56:24;24.40;;;21.38;;
17959;SDS011;9105;53.552;9.980;2023-07-29T05:58:49;25.75;;;21.77;;
17959;SDS011;9105;53.552;9.980;2023-07-29T06:01:15;23.75;;;21.02;;
17959;SDS011;9105;53.552;9.980;2023-07-29T06:03:40;24.45;;;21.95;;
17959;SDS011;9105;53.552;9.980;2023-07-29T06:06:06;26.40;;;23.60;;
17959;SDS011;9105;53.552;9.980;2023-07-29T06:08:31;25.35;;;22.65;;
17959;SDS011;9105;53.552;9.980;2023-07-29T06:10:59;32.38;;;28.33;;
17959;SDS011;9105;53.552;9.980;2023-07-29T06:13:25;35.33;;;28.17;;
17959;SDS011;9105;53.552;9.980;2023-07-29T06:15:50;32.05;;;28.23;;
17959;SDS011;9105;53.552;9.980;2023-07-29T06:18:15;33.58;;;27.17;;
17959;SDS011;9105;53.552;9.980;2023-07-29T06:20:41;34.63;;;30.65;;
17959;SDS011;9105;53.552;9.980;2023-07-29T06:23:07;38.05;;;33.50;;
17959;SDS011;9105;53.552;9.980;2023-07-29T06:25:33;32.13;;;27.73;;
17959;SDS011;9105;53.552;9.980;2023-07-29T06:27:58;36.22;;;32.25;;
17959;SDS011;9105;53.552;9.980;2023-07-29T06:30:24;39.05;;;32.33;;
17959;SDS011;9105;53.552;9.980;2023-07-29T06:32:49;36.72;;;30.45;;
17959;SDS011;9105;53.552;9.980;2023-07-29T06:35:14;32.85;;;29.25;;
17959;SDS011;9105;53.552;9.980;2023-07-29T06:37:40;32.42;;;28.95;;
17959;SDS011;9105;53.552;9.980;2023-07-29T06:40:06;31.67;;;28.23;;
17959;SDS011;9105;53.552;9.980;2023-07-29T06:42:32;32.67;;;28.23;;
17959;SDS011;9105;53.552;9.980;2023-07-29T06:44:57;29.00;;;25.88;;
17959;SDS011;9105;53.552;9.980;2023-07-29T06:47:22;29.50;;;25.15;;
17959;SDS011;9105;53.552;9.980;2023-07-29T06:49:48;31.05;;;27.77;;
17959;SDS011;9105;53.552;9.980;2023-07-29T06:52:13;29.98;;;26.77;;
17959;SDS011;9105;53.552;9.980;2023-07-29T06:54:39;29.60;;;26.48;;
17959;SDS011;9105;53.552;9.980;2023-07-29T06:57:04;27.48;;;24.67;;
17959;SDS011;9105;53.552;9.980;2023-07-29T06:59:30;26.98;;;23.45;;
17959;SDS011;9105;53.552;9.980;2023-07-29T07:01:55;24.13;;;21.63;;
17959;SDS011;9105;53.552;9.980;2023-07-29T07:04:21;32.33;;;28.90;;
17959;SDS011;9105;53.552;9.980;2023-07-29T07:06:46;23.17;;;20.98;;
17959;SDS011;9105;53.552;9.980;2023-07-29T07:09:12;23.25;;;20.63;;
17959;SDS011;9105;53.552;9.980;2023-07-29T07:11:37;25.20;;;21.45;;
17959;SDS011;9105;53.552;9.980;2023-07-29T07:14:02;25.17;;;20.83;;
17959;SDS011;9105;53.552;9.980;2023-07-29T07:16:28;22.60;;;20.20;;
17959;SDS011;9105;53.552;9.980;2023-07-29T07:18:56;22.00;;;19.80;;
17959;SDS011;9105;53.552;9.980;2023-07-29T07:21:22;27.83;;;20.35;;
17959;SDS011;9105;53.552;9.980;2023-07-29T07:23:49;25.40;;;22.60;;
17959;SDS011;9105;53.552;9.980;2023-07-29T07:26:15;26.10;;;21.60;;
17959;SDS011;9105;53.552;9.980;2023-07-29T07:28:40;26.60;;;22.85;;
17959;SDS011;9105;53.552;9.980;2023-07-29T07:31:05;23.85;;;21.33;;
17959;SDS011;9105;53.552;9.980;2023-07-29T07:33:31;23.60;;;20.80;;
17959;SDS011;9105;53.552;9.980;2023-07-29T07:35:56;28.23;;;22.10;;
17959;SDS011;9105;53.552;9.980;2023-07-29T07:38:22;24.02;;;20.63;;
17959;SDS011;9105;53.552;9.980;2023-07-29T07:40:53;22.65;;;20.10;;
17959;SDS011;9105;53.552;9.980;2023-07-29T07:43:23;23.50;;;21.02;;
17959;SDS011;9105;53.552;9.980;2023-07-29T07:45:48;24.92;;;21.42;;
17959;SDS011;9105;53.552;9.980;2023-07-29T07:48:14;31.17;;;24.83;;
17959;SDS011;9105;53.552;9.980;2023-07-29T07:50:41;30.48;;;25.10;;
17959;SDS011;9105;53.552;9.980;2023-07-29T07:53:07;28.85;;;24.83;;
17959;SDS011;9105;53.552;9.980;2023-07-29T07:55:32;27.80;;;23.15;;
17959;SDS011;9105;53.552;9.980;2023-07-29T07:57:57;28.50;;;24.05;;
17959;SDS011;9105;53.552;9.980;2023-07-29T08:00:23;26.85;;;23.55;;
17959;SDS011;9105;53.552;9.980;2023-07-29T08:02:49;25.50;;;21.50;;
17959;SDS011;9105;53.552;9.980;2023-07-29T08:05:14;24.25;;;21.60;;
17959;SDS011;9105;53.552;9.980;2023-07-29T08:07:40;26.73;;;22.30;;
17959;SDS011;9105;53.552;9.980;2023-07-29T08:10:06;26.10;;;20.42;;
17959;SDS011;9105;53.552;9.980;2023-07-29T08:12:32;21.48;;;18.40;;
17959;SDS011;9105;53.552;9.980;2023-07-29T08:14:57;28.13;;;20.40;;
17959;SDS011;9105;53.552;9.980;2023-07-29T08:17:23;25.48;;;21.00;;
17959;SDS011;9105;53.552;9.980;2023-07-29T08:19:48;23.92;;;19.85;;
17959;SDS011;9105;53.552;9.980;2023-07-29T08:22:14;23.77;;;19.88;;
17959;SDS011;9105;53.552;9.980;2023-07-29T08:24:39;19.45;;;17.23;;
17959;SDS011;9105;53.552;9.980;2023-07-29T08:27:05;21.55;;;18.27;;
17959;SDS011;9105;53.552;9.980;2023-07-29T08:29:31;20.08;;;17.95;;
17959;SDS011;9105;53.552;9.980;2023-07-29T08:31:56;17.42;;;15.60;;
17959;SDS011;9105;53.552;9.980;2023-07-29T08:34:21;18.17;;;16.30;;
17959;SDS011;9105;53.552;9.980;2023-07-29T08:36:47;17.45;;;15.73;;
17959;SDS011;9105;53.552;9.980;2023-07-29T08:39:12;17.73;;;14.90;;
17959;SDS011;9105;53.552;9.980;2023-07-29T08:41:41;17.83;;;15.80;;
17959;SDS011;9105;53.552;9.980;2023-07-29T08:44:18;18.05;;;16.15;;
17959;SDS011;9105;53.552;9.980;2023-07-29T08:46:49;19.13;;;16.60;;
17959;SDS011;9105;53.552;9.980;2023-07-29T08:49:15;18.73;;;16.42;;
17959;SDS011;9105;53.552;9.980;2023-07-29T08:51:44;18.65;;;16.10;;
17959;SDS011;9105;53.552;9.980;2023-07-29T08:54:11;16.83;;;15.07;;
17959;SDS011;9105;53.552;9.980;2023-07-29T08:56:37;20.98;;;16.38;;
17959;SDS011;9105;53.552;9.980;2023-07-29T08:59:06;17.45;;;15.65;;
17959;SDS011;9105;53.552;9.980;2023-07-29T09:01:32;17.13;;;15.20;;
17959;SDS011;9105;53.552;9.980;2023-07-29T09:03:57;16.35;;;14.63;;
17959;SDS011;9105;53.552;9.980;2023-07-29T09:06:23;16.75;;;15.05;;
17959;SDS011;9105;53.552;9.980;2023-07-29T09:08:50;15.95;;;14.25;;
17959;SDS011;9105;53.552;9.980;2023-07-29T09:11:16;17.70;;;15.95;;
17959;SDS011;9105;53.552;9.980;2023-07-29T09:13:42;17.15;;;15.13;;
17959;SDS011;9105;53.552;9.980;2023-07-29T09:16:09;17.70;;;15.60;;
17959;SDS011;9105;53.552;9.980;2023-07-29T09:18:34;16.33;;;14.63;;
17959;SDS011;9105;53.552;9.980;2023-07-29T09:21:00;16.52;;;14.82;;
17959;SDS011;9105;53.552;9.980;2023-07-29T09:23:28;15.98;;;14.35;;
17959;SDS011;9105;53.552;9.980;2023-07-29T09:26:00;16.30;;;12.85;;
17959;SDS011;9105;53.552;9.980;2023-07-29T09:28:32;15.52;;;13.98;;
17959;SDS011;9105;53.552;9.980;2023-07-29T09:30:58;14.95;;;13.32;;
17959;SDS011;9105;53.552;9.980;2023-07-29T09:33:25;14.65;;;13.00;;
17959;SDS011;9105;53.552;9.980;2023-07-29T09:35:51;13.95;;;12.32;;
17959;SDS011;9105;53.552;9.980;2023-07-29T09:38:16;13.32;;;11.95;;
17959;SDS011;9105;53.552;9.980;2023-07-29T09:40:42;13.43;;;12.13;;
17959;SDS011;9105;53.552;9.980;2023-07-29T09:43:10;12.85;;;11.55;;
17959;SDS011;9105;53.552;9.980;2023-07-29T09:45:36;13.43;;;11.82;;
17959;SDS011;9105;53.552;9.980;2023-07-29T09:48:02;15.52;;;11.60;;
17959;SDS011;9105;53.552;9.980;2023-07-29T09:50:30;11.40;;;10.15;;
17959;SDS011;9105;53.552;9.980;2023-07-29T09:52:55;15.63;;;11.48;;
17959;SDS011;9105;53.552;9.980;2023-07-29T09:55:23;13.45;;;11.45;;
17959;SDS011;9105;53.552;9.980;2023-07-29T09:57:59;12.75;;;11.45;;
17959;SDS011;9105;53.552;9.980;2023-07-29T10:00:30;12.38;;;11.10;;
17959;SDS011;9105;53.552;9.980;2023-07-29T10:02:57;12.35;;;10.73;;
17959;SDS011;9105;53.552;9.980;2023-07-29T10:05:25;11.90;;;10.70;;
17959;SDS011;9105;53.552;9.980;2023-07-29T10:07:51;11.18;;;10.07;;
17959;SDS011;9105;53.552;9.980;2023-07-29T10:10:17;11.52;;;9.57;;
17959;SDS011;9105;53.552;9.980;2023-07-29T10:12:42;9.07;;;8.13;;
17959;SDS011;9105;53.552;9.980;2023-07-29T10:15:08;8.80;;;7.18;;
17959;SDS011;9105;53.552;9.980;2023-07-29T10:17:37;8.18;;;7.38;;
17959;SDS011;9105;53.552;9.980;2023-07-29T10:20:03;7.82;;;7.03;;
17959;SDS011;9105;53.552;9.980;2023-07-29T10:22:36;6.90;;;6.03;;
17959;SDS011;9105;53.552;9.980;2023-07-29T10:25:04;6.72;;;6.00;;
17959;SDS011;9105;53.552;9.980;2023-07-29T10:27:33;7.10;;;5.85;;
17959;SDS011;9105;53.552;9.980;2023-07-29T10:30:03;7.53;;;5.60;;
17959;SDS011;9105;53.552;9.980;2023-07-29T10:32:29;6.13;;;5.03;;
17959;SDS011;9105;53.552;9.980;2023-07-29T10:34:55;6.00;;;5.40;;
17959;SDS011;9105;53.552;9.980;2023-07-29T10:37:21;6.35;;;5.75;;
17959;SDS011;9105;53.552;9.980;2023-07-29T10:39:54;7.78;;;5.50;;
17959;SDS011;9105;53.552;9.980;2023-07-29T10:42:20;5.40;;;4.90;;
17959;SDS011;9105;53.552;9.980;2023-07-29T10:44:46;6.07;;;4.82;;
17959;SDS011;9105;53.552;9.980;2023-07-29T10:49:40;6.32;;;4.57;;
17959;SDS011;9105;53.552;9.980;2023-07-29T10:52:06;5.43;;;4.40;;
17959;SDS011;9105;53.552;9.980;2023-07-29T10:54:41;5.18;;;4.68;;
17959;SDS011;9105;53.552;9.980;2023-07-29T10:57:14;5.90;;;4.65;;
17959;SDS011;9105;53.552;9.980;2023-07-29T10:59:40;6.35;;;5.18;;
17959;SDS011;9105;53.552;9.980;2023-07-29T11:02:17;5.70;;;5.13;;
17959;SDS011;9105;53.552;9.980;2023-07-29T11:04:47;7.82;;;4.82;;
17959;SDS011;9105;53.552;9.980;2023-07-29T11:15:00;6.50;;;4.90;;
17959;SDS011;9105;53.552;9.980;2023-07-29T11:17:29;4.85;;;4.35;;
17959;SDS011;9105;53.552;9.980;2023-07-29T11:19:58;5.25;;;4.45;;
17959;SDS011;9105;53.552;9.980;2023-07-29T11:22:25;6.10;;;3.85;;
17959;SDS011;9105;53.552;9.980;2023-07-29T11:24:51;6.60;;;4.50;;
17959;SDS011;9105;53.552;9.980;2023-07-29T11:27:16;5.90;;;4.30;;
17959;SDS011;9105;53.552;9.980;2023-07-29T11:29:41;5.00;;;4.35;;
17959;SDS011;9105;53.552;9.980;2023-07-29T11:32:07;5.72;;;4.07;;
17959;SDS011;9105;53.552;9.980;2023-07-29T11:34:33;4.55;;;4.15;;
17959;SDS011;9105;53.552;9.980;2023-07-29T11:36:58;4.20;;;3.78;;
17959;SDS011;9105;53.552;9.980;2023-07-29T11:39:23;4.28;;;3.88;;
17959;SDS011;9105;53.552;9.980;2023-07-29T11:41:49;4.15;;;3.72;;
17959;SDS011;9105;53.552;9.980;2023-07-29T11:44:17;4.03;;;3.22;;
17959;SDS011;9105;53.552;9.980;2023-07-29T11:49:08;3.85;;;3.30;;
17959;SDS011;9105;53.552;9.980;2023-07-29T11:51:34;5.03;;;3.38;;
17959;SDS011;9105;53.552;9.980;2023-07-29T11:54:00;6.97;;;3.90;;
17959;SDS011;9105;53.552;9.980;2023-07-29T11:56:25;4.97;;;3.67;;
17959;SDS011;9105;53.552;9.980;2023-07-29T11:58:51;4.32;;;3.40;;
17959;SDS011;9105;53.552;9.980;2023-07-29T12:01:16;4.07;;;3.50;;
17959;SDS011;9105;53.552;9.980;2023-07-29T12:03:42;4.05;;;3.10;;
17959;SDS011;9105;53.552;9.980;2023-07-29T12:06:08;4.70;;;3.40;;
17959;SDS011;9105;53.552;9.980;2023-07-29T12:08:33;5.53;;;3.55;;
17959;SDS011;9105;53.552;9.980;2023-07-29T12:10:58;5.72;;;3.70;;
17959;SDS011;9105;53.552;9.980;2023-07-29T12:13:24;4.13;;;3.70;;
17959;SDS011;9105;53.552;9.980;2023-07-29T12:15:50;5.25;;;3.80;;
17959;SDS011;9105;53.552;9.980;2023-07-29T12:18:15;3.80;;;3.50;;
17959;SDS011;9105;53.552;9.980;2023-07-29T12:20:41;3.70;;;3.30;;
17959;SDS011;9105;53.552;9.980;2023-07-29T12:23:06;3.58;;;3.28;;
17959;SDS011;9105;53.552;9.980;2023-07-29T12:25:33;4.05;;;3.50;;
17959;SDS011;9105;53.552;9.980;2023-07-29T12:28:03;3.67;;;3.13;;
17959;SDS011;9105;53.552;9.980;2023-07-29T12:30:30;3.15;;;2.95;;
17959;SDS011;9105;53.552;9.980;2023-07-29T12:32:55;4.28;;;3.13;;
17959;SDS011;9105;53.552;9.980;2023-07-29T12:35:21;4.03;;;2.90;;
17959;SDS011;9105;53.552;9.980;2023-07-29T12:37:46;5.40;;;3.17;;
17959;SDS011;9105;53.552;9.980;2023-07-29T12:40:24;3.40;;;3.10;;
17959;SDS011;9105;53.552;9.980;2023-07-29T12:42:50;3.50;;;2.97;;
17959;SDS011;9105;53.552;9.980;2023-07-29T12:45:16;2.97;;;2.70;;
17959;SDS011;9105;53.552;9.980;2023-07-29T12:47:43;2.90;;;2.70;;
17959;SDS011;9105;53.552;9.980;2023-07-29T12:50:08;3.15;;;2.50;;
17959;SDS011;9105;53.552;9.980;2023-07-29T12:52:34;5.15;;;2.75;;
17959;SDS011;9105;53.552;9.980;2023-07-29T12:55:00;2.72;;;2.53;;
17959;SDS011;9105;53.552;9.980;2023-07-29T12:57:25;2.80;;;2.45;;
17959;SDS011;9105;53.552;9.980;2023-07-29T12:59:50;2.58;;;2.30;;
17959;SDS011;9105;53.552;9.980;2023-07-29T13:02:16;2.92;;;2.40;;
17959;SDS011;9105;53.552;9.980;2023-07-29T13:04:41;2.65;;;2.45;;
17959;SDS011;9105;53.552;9.980;2023-07-29T13:07:07;2.60;;;2.40;;
17959;SDS011;9105;53.552;9.980;2023-07-29T13:09:32;4.18;;;2.25;;
17959;SDS011;9105;53.552;9.980;2023-07-29T13:11:57;4.20;;;2.47;;
17959;SDS011;9105;53.552;9.980;2023-07-29T13:14:23;2.85;;;2.42;;
17959;SDS011;9105;53.552;9.980;2023-07-29T13:16:51;2.50;;;2.20;;
17959;SDS011;9105;53.552;9.980;2023-07-29T13:19:18;2.65;;;1.88;;
17959;SDS011;9105;53.552;9.980;2023-07-29T13:21:43;2.00;;;1.80;;
17959;SDS011;9105;53.552;9.980;2023-07-29T13:24:09;3.63;;;1.88;;
17959;SDS011;9105;53.552;9.980;2023-07-29T13:26:34;8.57;;;2.22;;
17959;SDS011;9105;53.552;9.980;2023-07-29T13:29:00;2.30;;;2.10;;
17959;SDS011;9105;53.552;9.980;2023-07-29T13:31:26;3.03;;;2.15;;
17959;SDS011;9105;53.552;9.980;2023-07-29T13:33:51;2.40;;;2.13;;
17959;SDS011;9105;53.552;9.980;2023-07-29T13:36:16;3.35;;;2.28;;
17959;SDS011;9105;53.552;9.980;2023-07-29T13:38:42;2.47;;;2.20;;
17959;SDS011;9105;53.552;9.980;2023-07-29T13:41:07;2.75;;;2.30;;
17959;SDS011;9105;53.552;9.980;2023-07-29T13:43:33;3.10;;;2.20;;
17959;SDS011;9105;53.552;9.980;2023-07-29T13:45:58;4.07;;;2.20;;
17959;SDS011;9105;53.552;9.980;2023-07-29T13:48:23;3.13;;;2.28;;
17959;SDS011;9105;53.552;9.980;2023-07-29T13:50:49;2.50;;;2.30;;
17959;SDS011;9105;53.552;9.980;2023-07-29T13:53:16;4.03;;;2.08;;
17959;SDS011;9105;53.552;9.980;2023-07-29T13:55:41;4.13;;;2.45;;
17959;SDS011;9105;53.552;9.980;2023-07-29T13:58:07;3.65;;;2.58;;
17959;SDS011;9105;53.552;9.980;2023-07-29T14:00:32;4.20;;;2.20;;
17959;SDS011;9105;53.552;9.980;2023-07-29T14:02:58;2.55;;;2.20;;
17959;SDS011;9105;53.552;9.980;2023-07-29T14:05:23;2.58;;;2.10;;
17959;SDS011;9105;53.552;9.980;2023-07-29T14:07:48;2.47;;;2.20;;
17959;SDS011;9105;53.552;9.980;2023-07-29T14:10:14;4.03;;;2.35;;
17959;SDS011;9105;53.552;9.980;2023-07-29T14:12:39;2.60;;;2.40;;
17959;SDS011;9105;53.552;9.980;2023-07-29T14:15:05;4.65;;;2.40;;
17959;SDS011;9105;53.552;9.980;2023-07-29T14:17:34;2.58;;;2.10;;
17959;SDS011;9105;53.552;9.980;2023-07-29T14:19:59;3.28;;;2.28;;
17959;SDS011;9105;53.552;9.980;2023-07-29T14:22:25;3.35;;;2.50;;
17959;SDS011;9105;53.552;9.980;2023-07-29T14:24:50;2.50;;;2.30;;
17959;SDS011;9105;53.552;9.980;2023-07-29T14:27:15;2.70;;;2.33;;
17959;SDS011;9105;53.552;9.980;2023-07-29T14:29:42;2.22;;;2.03;;
17959;SDS011;9105;53.552;9.980;2023-07-29T14:32:07;3.45;;;2.25;;
17959;SDS011;9105;53.552;9.980;2023-07-29T14:34:32;4.57;;;2.00;;
17959;SDS011;9105;53.552;9.980;2023-07-29T14:36:58;2.40;;;2.20;;
17959;SDS011;9105;53.552;9.980;2023-07-29T14:39:23;4.63;;;2.33;;
17959;SDS011;9105;53.552;9.980;2023-07-29T14:41:49;2.40;;;2.20;;
17959;SDS011;9105;53.552;9.980;2023-07-29T14:44:14;2.28;;;2.08;;
17959;SDS011;9105;53.552;9.980;2023-07-29T14:46:39;2.50;;;2.08;;
17959;SDS011;9105;53.552;9.980;2023-07-29T14:49:05;2.85;;;1.98;;
17959;SDS011;9105;53.552;9.980;2023-07-29T14:51:30;3.35;;;2.38;;
17959;SDS011;9105;53.552;9.980;2023-07-29T14:53:56;4.38;;;2.25;;